<?xml version="1.0" encoding="UTF-8" standalone="no" ?>
<gpx xmlns="http://www.topografix.com/GPX/1/1" xmlns:xsi="http://www.w3.org/2001/XMLSchema-instance" xsi:schemaLocation="http://www.topografix.com/GPX/1/1 http://www.topografix.com/GPX/1/1/gpx.xsd" version="1.1" creator="VisuGPX - https://www.visugpx.com">
  <metadata>
    <name>Sprint Morez</name>
    <desc><![CDATA[Sprint Elite organisé lors de l\'O Jura 2014]]></desc>
  </metadata>
  <trk>
    <name><![CDATA[sprint morez]]></name>
    <trkseg>
      <trkpt lat="46.52115" lon="6.02285">
        <ele>719.20001220703</ele>
        <time>2014-05-30T14:05:03.000Z</time>
      </trkpt>
      <trkpt lat="46.52103" lon="6.0229">
        <ele>717.79998779297</ele>
        <time>2014-05-30T14:05:07.000Z</time>
      </trkpt>
      <trkpt lat="46.52089" lon="6.02295">
        <ele>715.79998779297</ele>
        <time>2014-05-30T14:05:11.000Z</time>
      </trkpt>
      <trkpt lat="46.52079" lon="6.02275">
        <ele>713.40002441406</ele>
        <time>2014-05-30T14:05:15.000Z</time>
      </trkpt>
      <trkpt lat="46.52057" lon="6.0225">
        <ele>710</ele>
        <time>2014-05-30T14:05:20.000Z</time>
      </trkpt>
      <trkpt lat="46.52043" lon="6.0226">
        <ele>710.40002441406</ele>
        <time>2014-05-30T14:05:24.000Z</time>
      </trkpt>
      <trkpt lat="46.52045" lon="6.02261">
        <ele>710.40002441406</ele>
        <time>2014-05-30T14:05:27.000Z</time>
      </trkpt>
      <trkpt lat="46.5203" lon="6.02255">
        <ele>710</ele>
        <time>2014-05-30T14:05:31.000Z</time>
      </trkpt>
      <trkpt lat="46.52039" lon="6.02287">
        <ele>711.59997558594</ele>
        <time>2014-05-30T14:05:35.000Z</time>
      </trkpt>
      <trkpt lat="46.52044" lon="6.02294">
        <ele>712</ele>
        <time>2014-05-30T14:05:38.000Z</time>
      </trkpt>
      <trkpt lat="46.52044" lon="6.023">
        <ele>712.20001220703</ele>
        <time>2014-05-30T14:05:41.000Z</time>
      </trkpt>
      <trkpt lat="46.52049" lon="6.02287">
        <ele>711.79998779297</ele>
        <time>2014-05-30T14:05:46.000Z</time>
      </trkpt>
      <trkpt lat="46.52038" lon="6.02273">
        <ele>711</ele>
        <time>2014-05-30T14:05:49.000Z</time>
      </trkpt>
      <trkpt lat="46.52012" lon="6.02274">
        <ele>710.40002441406</ele>
        <time>2014-05-30T14:05:52.000Z</time>
      </trkpt>
      <trkpt lat="46.52003" lon="6.02284">
        <ele>710.59997558594</ele>
        <time>2014-05-30T14:05:54.000Z</time>
      </trkpt>
      <trkpt lat="46.51987" lon="6.02309">
        <ele>711</ele>
        <time>2014-05-30T14:05:59.000Z</time>
      </trkpt>
      <trkpt lat="46.51969" lon="6.02331">
        <ele>712.40002441406</ele>
        <time>2014-05-30T14:06:04.000Z</time>
      </trkpt>
      <trkpt lat="46.51965" lon="6.02337">
        <ele>712.79998779297</ele>
        <time>2014-05-30T14:06:06.000Z</time>
      </trkpt>
      <trkpt lat="46.51966" lon="6.02353">
        <ele>713.59997558594</ele>
        <time>2014-05-30T14:06:09.000Z</time>
      </trkpt>
      <trkpt lat="46.51965" lon="6.02349">
        <ele>713.40002441406</ele>
        <time>2014-05-30T14:06:11.000Z</time>
      </trkpt>
      <trkpt lat="46.51958" lon="6.02313">
        <ele>711.20001220703</ele>
        <time>2014-05-30T14:06:16.000Z</time>
      </trkpt>
      <trkpt lat="46.51943" lon="6.02304">
        <ele>711.20001220703</ele>
        <time>2014-05-30T14:06:20.000Z</time>
      </trkpt>
      <trkpt lat="46.51938" lon="6.02308">
        <ele>711</ele>
        <time>2014-05-30T14:06:21.000Z</time>
      </trkpt>
      <trkpt lat="46.51926" lon="6.02312">
        <ele>711.20001220703</ele>
        <time>2014-05-30T14:06:24.000Z</time>
      </trkpt>
      <trkpt lat="46.51922" lon="6.02297">
        <ele>711.40002441406</ele>
        <time>2014-05-30T14:06:28.000Z</time>
      </trkpt>
      <trkpt lat="46.51932" lon="6.02289">
        <ele>711.59997558594</ele>
        <time>2014-05-30T14:06:31.000Z</time>
      </trkpt>
      <trkpt lat="46.51954" lon="6.0227">
        <ele>711.79998779297</ele>
        <time>2014-05-30T14:06:37.000Z</time>
      </trkpt>
      <trkpt lat="46.51956" lon="6.02262">
        <ele>711.40002441406</ele>
        <time>2014-05-30T14:06:39.000Z</time>
      </trkpt>
      <trkpt lat="46.51946" lon="6.02271">
        <ele>712.40002441406</ele>
        <time>2014-05-30T14:06:43.000Z</time>
      </trkpt>
      <trkpt lat="46.51954" lon="6.0226">
        <ele>711.40002441406</ele>
        <time>2014-05-30T14:06:48.000Z</time>
      </trkpt>
      <trkpt lat="46.51964" lon="6.02256">
        <ele>710.40002441406</ele>
        <time>2014-05-30T14:06:51.000Z</time>
      </trkpt>
      <trkpt lat="46.51976" lon="6.02243">
        <ele>709.20001220703</ele>
        <time>2014-05-30T14:06:54.000Z</time>
      </trkpt>
      <trkpt lat="46.51982" lon="6.02233">
        <ele>708.40002441406</ele>
        <time>2014-05-30T14:06:56.000Z</time>
      </trkpt>
      <trkpt lat="46.51984" lon="6.02221">
        <ele>708.40002441406</ele>
        <time>2014-05-30T14:06:58.000Z</time>
      </trkpt>
      <trkpt lat="46.51973" lon="6.02203">
        <ele>712</ele>
        <time>2014-05-30T14:07:02.000Z</time>
      </trkpt>
      <trkpt lat="46.51964" lon="6.02202">
        <ele>713.40002441406</ele>
        <time>2014-05-30T14:07:05.000Z</time>
      </trkpt>
      <trkpt lat="46.51959" lon="6.02207">
        <ele>713.20001220703</ele>
        <time>2014-05-30T14:07:07.000Z</time>
      </trkpt>
      <trkpt lat="46.51941" lon="6.02226">
        <ele>711.20001220703</ele>
        <time>2014-05-30T14:07:13.000Z</time>
      </trkpt>
      <trkpt lat="46.51921" lon="6.02238">
        <ele>713</ele>
        <time>2014-05-30T14:07:18.000Z</time>
      </trkpt>
      <trkpt lat="46.51912" lon="6.02247">
        <ele>713.20001220703</ele>
        <time>2014-05-30T14:07:21.000Z</time>
      </trkpt>
      <trkpt lat="46.51897" lon="6.02257">
        <ele>713.59997558594</ele>
        <time>2014-05-30T14:07:26.000Z</time>
      </trkpt>
      <trkpt lat="46.51881" lon="6.02273">
        <ele>716.20001220703</ele>
        <time>2014-05-30T14:07:31.000Z</time>
      </trkpt>
      <trkpt lat="46.51866" lon="6.02289">
        <ele>717</ele>
        <time>2014-05-30T14:07:36.000Z</time>
      </trkpt>
      <trkpt lat="46.51852" lon="6.023">
        <ele>716.40002441406</ele>
        <time>2014-05-30T14:07:41.000Z</time>
      </trkpt>
      <trkpt lat="46.51834" lon="6.02315">
        <ele>716.59997558594</ele>
        <time>2014-05-30T14:07:46.000Z</time>
      </trkpt>
      <trkpt lat="46.51828" lon="6.02321">
        <ele>717.20001220703</ele>
        <time>2014-05-30T14:07:48.000Z</time>
      </trkpt>
      <trkpt lat="46.51818" lon="6.02343">
        <ele>714.79998779297</ele>
        <time>2014-05-30T14:07:53.000Z</time>
      </trkpt>
      <trkpt lat="46.51801" lon="6.02347">
        <ele>715.40002441406</ele>
        <time>2014-05-30T14:07:57.000Z</time>
      </trkpt>
      <trkpt lat="46.51786" lon="6.0234">
        <ele>716.79998779297</ele>
        <time>2014-05-30T14:08:01.000Z</time>
      </trkpt>
      <trkpt lat="46.51782" lon="6.02341">
        <ele>717</ele>
        <time>2014-05-30T14:08:02.000Z</time>
      </trkpt>
      <trkpt lat="46.51769" lon="6.02346">
        <ele>717.20001220703</ele>
        <time>2014-05-30T14:08:05.000Z</time>
      </trkpt>
      <trkpt lat="46.51761" lon="6.02326">
        <ele>719.59997558594</ele>
        <time>2014-05-30T14:08:09.000Z</time>
      </trkpt>
      <trkpt lat="46.51761" lon="6.02321">
        <ele>720.20001220703</ele>
        <time>2014-05-30T14:08:11.000Z</time>
      </trkpt>
      <trkpt lat="46.51769" lon="6.02335">
        <ele>718.40002441406</ele>
        <time>2014-05-30T14:08:15.000Z</time>
      </trkpt>
      <trkpt lat="46.51765" lon="6.02322">
        <ele>719.79998779297</ele>
        <time>2014-05-30T14:08:20.000Z</time>
      </trkpt>
      <trkpt lat="46.51763" lon="6.02319">
        <ele>720.20001220703</ele>
        <time>2014-05-30T14:08:21.000Z</time>
      </trkpt>
      <trkpt lat="46.51761" lon="6.02341">
        <ele>718.40002441406</ele>
        <time>2014-05-30T14:08:26.000Z</time>
      </trkpt>
      <trkpt lat="46.51758" lon="6.02367">
        <ele>716</ele>
        <time>2014-05-30T14:08:30.000Z</time>
      </trkpt>
      <trkpt lat="46.51747" lon="6.02402">
        <ele>715</ele>
        <time>2014-05-30T14:08:36.000Z</time>
      </trkpt>
      <trkpt lat="46.51742" lon="6.02405">
        <ele>715.20001220703</ele>
        <time>2014-05-30T14:08:38.000Z</time>
      </trkpt>
      <trkpt lat="46.51747" lon="6.02393">
        <ele>714.20001220703</ele>
        <time>2014-05-30T14:08:43.000Z</time>
      </trkpt>
      <trkpt lat="46.5174" lon="6.02394">
        <ele>714.79998779297</ele>
        <time>2014-05-30T14:08:45.000Z</time>
      </trkpt>
      <trkpt lat="46.51725" lon="6.02404">
        <ele>715.40002441406</ele>
        <time>2014-05-30T14:08:49.000Z</time>
      </trkpt>
      <trkpt lat="46.51732" lon="6.02405">
        <ele>715</ele>
        <time>2014-05-30T14:08:53.000Z</time>
      </trkpt>
      <trkpt lat="46.51729" lon="6.02399">
        <ele>715.20001220703</ele>
        <time>2014-05-30T14:08:56.000Z</time>
      </trkpt>
      <trkpt lat="46.51728" lon="6.02399">
        <ele>715.20001220703</ele>
        <time>2014-05-30T14:08:58.000Z</time>
      </trkpt>
      <trkpt lat="46.5174" lon="6.02387">
        <ele>715</ele>
        <time>2014-05-30T14:09:03.000Z</time>
      </trkpt>
      <trkpt lat="46.51743" lon="6.02388">
        <ele>714.79998779297</ele>
        <time>2014-05-30T14:09:04.000Z</time>
      </trkpt>
      <trkpt lat="46.51753" lon="6.02396">
        <ele>714.20001220703</ele>
        <time>2014-05-30T14:09:09.000Z</time>
      </trkpt>
      <trkpt lat="46.51766" lon="6.02396">
        <ele>713.40002441406</ele>
        <time>2014-05-30T14:09:13.000Z</time>
      </trkpt>
      <trkpt lat="46.51777" lon="6.02406">
        <ele>713.59997558594</ele>
        <time>2014-05-30T14:09:17.000Z</time>
      </trkpt>
      <trkpt lat="46.51778" lon="6.0241">
        <ele>713.79998779297</ele>
        <time>2014-05-30T14:09:18.000Z</time>
      </trkpt>
      <trkpt lat="46.51779" lon="6.02439">
        <ele>716</ele>
        <time>2014-05-30T14:09:22.000Z</time>
      </trkpt>
      <trkpt lat="46.51763" lon="6.02464">
        <ele>715.20001220703</ele>
        <time>2014-05-30T14:09:27.000Z</time>
      </trkpt>
      <trkpt lat="46.51754" lon="6.02486">
        <ele>716</ele>
        <time>2014-05-30T14:09:31.000Z</time>
      </trkpt>
      <trkpt lat="46.5175" lon="6.02497">
        <ele>716.79998779297</ele>
        <time>2014-05-30T14:09:33.000Z</time>
      </trkpt>
      <trkpt lat="46.51744" lon="6.02506">
        <ele>716.59997558594</ele>
        <time>2014-05-30T14:09:35.000Z</time>
      </trkpt>
      <trkpt lat="46.51733" lon="6.02521">
        <ele>716.20001220703</ele>
        <time>2014-05-30T14:09:38.000Z</time>
      </trkpt>
      <trkpt lat="46.51726" lon="6.02528">
        <ele>716.59997558594</ele>
        <time>2014-05-30T14:09:40.000Z</time>
      </trkpt>
      <trkpt lat="46.51718" lon="6.02533">
        <ele>716.79998779297</ele>
        <time>2014-05-30T14:09:42.000Z</time>
      </trkpt>
      <trkpt lat="46.51709" lon="6.02528">
        <ele>716.59997558594</ele>
        <time>2014-05-30T14:09:46.000Z</time>
      </trkpt>
      <trkpt lat="46.51707" lon="6.02527">
        <ele>716.40002441406</ele>
        <time>2014-05-30T14:09:48.000Z</time>
      </trkpt>
      <trkpt lat="46.51697" lon="6.02532">
        <ele>716.40002441406</ele>
        <time>2014-05-30T14:09:53.000Z</time>
      </trkpt>
      <trkpt lat="46.51674" lon="6.02525">
        <ele>715.79998779297</ele>
        <time>2014-05-30T14:09:59.000Z</time>
      </trkpt>
      <trkpt lat="46.51667" lon="6.02515">
        <ele>715.40002441406</ele>
        <time>2014-05-30T14:10:02.000Z</time>
      </trkpt>
      <trkpt lat="46.51666" lon="6.02493">
        <ele>714.79998779297</ele>
        <time>2014-05-30T14:10:06.000Z</time>
      </trkpt>
      <trkpt lat="46.51672" lon="6.02486">
        <ele>714.59997558594</ele>
        <time>2014-05-30T14:10:08.000Z</time>
      </trkpt>
      <trkpt lat="46.5168" lon="6.02483">
        <ele>714.40002441406</ele>
        <time>2014-05-30T14:10:13.000Z</time>
      </trkpt>
      <trkpt lat="46.51675" lon="6.02456">
        <ele>715.40002441406</ele>
        <time>2014-05-30T14:10:19.000Z</time>
      </trkpt>
      <trkpt lat="46.5168" lon="6.02439">
        <ele>716.59997558594</ele>
        <time>2014-05-30T14:10:25.000Z</time>
      </trkpt>
      <trkpt lat="46.51681" lon="6.02437">
        <ele>716.79998779297</ele>
        <time>2014-05-30T14:10:28.000Z</time>
      </trkpt>
      <trkpt lat="46.51689" lon="6.02433">
        <ele>717</ele>
        <time>2014-05-30T14:10:34.000Z</time>
      </trkpt>
      <trkpt lat="46.517" lon="6.02427">
        <ele>716.59997558594</ele>
        <time>2014-05-30T14:10:39.000Z</time>
      </trkpt>
      <trkpt lat="46.51709" lon="6.02413">
        <ele>716.20001220703</ele>
        <time>2014-05-30T14:10:43.000Z</time>
      </trkpt>
      <trkpt lat="46.51726" lon="6.02403">
        <ele>715.40002441406</ele>
        <time>2014-05-30T14:10:47.000Z</time>
      </trkpt>
      <trkpt lat="46.51741" lon="6.02399">
        <ele>715.20001220703</ele>
        <time>2014-05-30T14:10:51.000Z</time>
      </trkpt>
      <trkpt lat="46.51747" lon="6.02397">
        <ele>714.59997558594</ele>
        <time>2014-05-30T14:10:53.000Z</time>
      </trkpt>
      <trkpt lat="46.51749" lon="6.02371">
        <ele>716.20001220703</ele>
        <time>2014-05-30T14:10:57.000Z</time>
      </trkpt>
      <trkpt lat="46.51748" lon="6.02353">
        <ele>717.79998779297</ele>
        <time>2014-05-30T14:11:00.000Z</time>
      </trkpt>
      <trkpt lat="46.51756" lon="6.02322">
        <ele>720.40002441406</ele>
        <time>2014-05-30T14:11:07.000Z</time>
      </trkpt>
      <trkpt lat="46.51762" lon="6.0232">
        <ele>720.20001220703</ele>
        <time>2014-05-30T14:11:10.000Z</time>
      </trkpt>
      <trkpt lat="46.51763" lon="6.02323">
        <ele>719.79998779297</ele>
        <time>2014-05-30T14:11:11.000Z</time>
      </trkpt>
      <trkpt lat="46.51769" lon="6.02335">
        <ele>718.40002441406</ele>
        <time>2014-05-30T14:11:14.000Z</time>
      </trkpt>
      <trkpt lat="46.51793" lon="6.02336">
        <ele>716.79998779297</ele>
        <time>2014-05-30T14:11:20.000Z</time>
      </trkpt>
      <trkpt lat="46.51798" lon="6.02328">
        <ele>717.20001220703</ele>
        <time>2014-05-30T14:11:22.000Z</time>
      </trkpt>
      <trkpt lat="46.51792" lon="6.02311">
        <ele>719.40002441406</ele>
        <time>2014-05-30T14:11:25.000Z</time>
      </trkpt>
      <trkpt lat="46.51774" lon="6.02307">
        <ele>720.79998779297</ele>
        <time>2014-05-30T14:11:29.000Z</time>
      </trkpt>
      <trkpt lat="46.51763" lon="6.02303">
        <ele>722</ele>
        <time>2014-05-30T14:11:32.000Z</time>
      </trkpt>
      <trkpt lat="46.5175" lon="6.02296">
        <ele>723.79998779297</ele>
        <time>2014-05-30T14:11:37.000Z</time>
      </trkpt>
      <trkpt lat="46.51743" lon="6.02293">
        <ele>724.79998779297</ele>
        <time>2014-05-30T14:11:41.000Z</time>
      </trkpt>
      <trkpt lat="46.5174" lon="6.02293">
        <ele>724.79998779297</ele>
        <time>2014-05-30T14:11:42.000Z</time>
      </trkpt>
      <trkpt lat="46.51725" lon="6.023">
        <ele>724.59997558594</ele>
        <time>2014-05-30T14:11:48.000Z</time>
      </trkpt>
      <trkpt lat="46.51716" lon="6.02311">
        <ele>724.59997558594</ele>
        <time>2014-05-30T14:11:52.000Z</time>
      </trkpt>
      <trkpt lat="46.51705" lon="6.02323">
        <ele>724.40002441406</ele>
        <time>2014-05-30T14:11:56.000Z</time>
      </trkpt>
      <trkpt lat="46.51689" lon="6.02333">
        <ele>725</ele>
        <time>2014-05-30T14:12:00.000Z</time>
      </trkpt>
      <trkpt lat="46.51677" lon="6.02339">
        <ele>725.40002441406</ele>
        <time>2014-05-30T14:12:04.000Z</time>
      </trkpt>
      <trkpt lat="46.51668" lon="6.02345">
        <ele>725.20001220703</ele>
        <time>2014-05-30T14:12:07.000Z</time>
      </trkpt>
      <trkpt lat="46.51654" lon="6.0235">
        <ele>725.40002441406</ele>
        <time>2014-05-30T14:12:11.000Z</time>
      </trkpt>
      <trkpt lat="46.51644" lon="6.0235">
        <ele>725.59997558594</ele>
        <time>2014-05-30T14:12:14.000Z</time>
      </trkpt>
      <trkpt lat="46.51642" lon="6.02348">
        <ele>726</ele>
        <time>2014-05-30T14:12:16.000Z</time>
      </trkpt>
      <trkpt lat="46.51656" lon="6.02347">
        <ele>725.59997558594</ele>
        <time>2014-05-30T14:12:21.000Z</time>
      </trkpt>
      <trkpt lat="46.51668" lon="6.02339">
        <ele>726</ele>
        <time>2014-05-30T14:12:24.000Z</time>
      </trkpt>
      <trkpt lat="46.51688" lon="6.02326">
        <ele>725.59997558594</ele>
        <time>2014-05-30T14:12:29.000Z</time>
      </trkpt>
      <trkpt lat="46.51693" lon="6.02304">
        <ele>727.40002441406</ele>
        <time>2014-05-30T14:12:34.000Z</time>
      </trkpt>
      <trkpt lat="46.51701" lon="6.02292">
        <ele>727.79998779297</ele>
        <time>2014-05-30T14:12:37.000Z</time>
      </trkpt>
      <trkpt lat="46.51704" lon="6.0229">
        <ele>727.59997558594</ele>
        <time>2014-05-30T14:12:38.000Z</time>
      </trkpt>
      <trkpt lat="46.51716" lon="6.02279">
        <ele>728.20001220703</ele>
        <time>2014-05-30T14:12:43.000Z</time>
      </trkpt>
      <trkpt lat="46.51732" lon="6.02272">
        <ele>728.40002441406</ele>
        <time>2014-05-30T14:12:48.000Z</time>
      </trkpt>
      <trkpt lat="46.51745" lon="6.02259">
        <ele>729.40002441406</ele>
        <time>2014-05-30T14:12:53.000Z</time>
      </trkpt>
      <trkpt lat="46.51742" lon="6.02245">
        <ele>731.59997558594</ele>
        <time>2014-05-30T14:12:58.000Z</time>
      </trkpt>
      <trkpt lat="46.5173" lon="6.02239">
        <ele>733.20001220703</ele>
        <time>2014-05-30T14:13:03.000Z</time>
      </trkpt>
      <trkpt lat="46.51727" lon="6.02239">
        <ele>733.40002441406</ele>
        <time>2014-05-30T14:13:08.000Z</time>
      </trkpt>
      <trkpt lat="46.51737" lon="6.02233">
        <ele>733.59997558594</ele>
        <time>2014-05-30T14:13:12.000Z</time>
      </trkpt>
      <trkpt lat="46.51752" lon="6.02218">
        <ele>735.20001220703</ele>
        <time>2014-05-30T14:13:18.000Z</time>
      </trkpt>
      <trkpt lat="46.51757" lon="6.02213">
        <ele>735.79998779297</ele>
        <time>2014-05-30T14:13:20.000Z</time>
      </trkpt>
      <trkpt lat="46.51761" lon="6.02201">
        <ele>737.40002441406</ele>
        <time>2014-05-30T14:13:24.000Z</time>
      </trkpt>
      <trkpt lat="46.5176" lon="6.02191">
        <ele>739.20001220703</ele>
        <time>2014-05-30T14:13:26.000Z</time>
      </trkpt>
      <trkpt lat="46.51756" lon="6.0217">
        <ele>742.59997558594</ele>
        <time>2014-05-30T14:13:31.000Z</time>
      </trkpt>
      <trkpt lat="46.51754" lon="6.02151">
        <ele>745.79998779297</ele>
        <time>2014-05-30T14:13:36.000Z</time>
      </trkpt>
      <trkpt lat="46.51754" lon="6.02137">
        <ele>748</ele>
        <time>2014-05-30T14:13:40.000Z</time>
      </trkpt>
      <trkpt lat="46.51758" lon="6.02119">
        <ele>749</ele>
        <time>2014-05-30T14:13:45.000Z</time>
      </trkpt>
      <trkpt lat="46.51757" lon="6.02103">
        <ele>750.20001220703</ele>
        <time>2014-05-30T14:13:49.000Z</time>
      </trkpt>
      <trkpt lat="46.51747" lon="6.02097">
        <ele>751</ele>
        <time>2014-05-30T14:13:53.000Z</time>
      </trkpt>
      <trkpt lat="46.51739" lon="6.02095">
        <ele>751.20001220703</ele>
        <time>2014-05-30T14:13:57.000Z</time>
      </trkpt>
      <trkpt lat="46.51728" lon="6.02112">
        <ele>750.40002441406</ele>
        <time>2014-05-30T14:14:01.000Z</time>
      </trkpt>
      <trkpt lat="46.51721" lon="6.02127">
        <ele>749.59997558594</ele>
        <time>2014-05-30T14:14:05.000Z</time>
      </trkpt>
      <trkpt lat="46.51719" lon="6.02129">
        <ele>749.40002441406</ele>
        <time>2014-05-30T14:14:06.000Z</time>
      </trkpt>
      <trkpt lat="46.51704" lon="6.0213">
        <ele>749.20001220703</ele>
        <time>2014-05-30T14:14:10.000Z</time>
      </trkpt>
      <trkpt lat="46.51732" lon="6.02118">
        <ele>749.79998779297</ele>
        <time>2014-05-30T14:14:16.000Z</time>
      </trkpt>
      <trkpt lat="46.51747" lon="6.02089">
        <ele>751.40002441406</ele>
        <time>2014-05-30T14:14:21.000Z</time>
      </trkpt>
      <trkpt lat="46.51748" lon="6.02081">
        <ele>752</ele>
        <time>2014-05-30T14:14:23.000Z</time>
      </trkpt>
      <trkpt lat="46.51753" lon="6.02063">
        <ele>753.79998779297</ele>
        <time>2014-05-30T14:14:28.000Z</time>
      </trkpt>
      <trkpt lat="46.51756" lon="6.02043">
        <ele>755.20001220703</ele>
        <time>2014-05-30T14:14:32.000Z</time>
      </trkpt>
      <trkpt lat="46.51754" lon="6.02036">
        <ele>755.59997558594</ele>
        <time>2014-05-30T14:14:35.000Z</time>
      </trkpt>
      <trkpt lat="46.51749" lon="6.02046">
        <ele>755</ele>
        <time>2014-05-30T14:14:40.000Z</time>
      </trkpt>
      <trkpt lat="46.51768" lon="6.02046">
        <ele>755.20001220703</ele>
        <time>2014-05-30T14:14:46.000Z</time>
      </trkpt>
      <trkpt lat="46.51778" lon="6.02046">
        <ele>755.20001220703</ele>
        <time>2014-05-30T14:14:49.000Z</time>
      </trkpt>
      <trkpt lat="46.51786" lon="6.02034">
        <ele>756.20001220703</ele>
        <time>2014-05-30T14:14:52.000Z</time>
      </trkpt>
      <trkpt lat="46.51794" lon="6.02021">
        <ele>757.40002441406</ele>
        <time>2014-05-30T14:14:55.000Z</time>
      </trkpt>
      <trkpt lat="46.51801" lon="6.02006">
        <ele>758.79998779297</ele>
        <time>2014-05-30T14:14:59.000Z</time>
      </trkpt>
      <trkpt lat="46.51805" lon="6.01995">
        <ele>760</ele>
        <time>2014-05-30T14:15:03.000Z</time>
      </trkpt>
      <trkpt lat="46.51814" lon="6.01997">
        <ele>760</ele>
        <time>2014-05-30T14:15:10.000Z</time>
      </trkpt>
      <trkpt lat="46.51826" lon="6.01994">
        <ele>760.20001220703</ele>
        <time>2014-05-30T14:15:15.000Z</time>
      </trkpt>
      <trkpt lat="46.51844" lon="6.01994">
        <ele>760.20001220703</ele>
        <time>2014-05-30T14:15:21.000Z</time>
      </trkpt>
      <trkpt lat="46.51854" lon="6.01997">
        <ele>760</ele>
        <time>2014-05-30T14:15:24.000Z</time>
      </trkpt>
      <trkpt lat="46.51869" lon="6.02001">
        <ele>759.79998779297</ele>
        <time>2014-05-30T14:15:29.000Z</time>
      </trkpt>
      <trkpt lat="46.51883" lon="6.02005">
        <ele>759.59997558594</ele>
        <time>2014-05-30T14:15:33.000Z</time>
      </trkpt>
      <trkpt lat="46.51897" lon="6.02009">
        <ele>759.40002441406</ele>
        <time>2014-05-30T14:15:37.000Z</time>
      </trkpt>
      <trkpt lat="46.51902" lon="6.02012">
        <ele>758.79998779297</ele>
        <time>2014-05-30T14:15:39.000Z</time>
      </trkpt>
      <trkpt lat="46.519" lon="6.02029">
        <ele>756.79998779297</ele>
        <time>2014-05-30T14:15:43.000Z</time>
      </trkpt>
      <trkpt lat="46.519" lon="6.02036">
        <ele>756</ele>
        <time>2014-05-30T14:15:44.000Z</time>
      </trkpt>
      <trkpt lat="46.51902" lon="6.02076">
        <ele>748</ele>
        <time>2014-05-30T14:15:50.000Z</time>
      </trkpt>
      <trkpt lat="46.51903" lon="6.02098">
        <ele>741.20001220703</ele>
        <time>2014-05-30T14:15:53.000Z</time>
      </trkpt>
      <trkpt lat="46.51902" lon="6.02116">
        <ele>736.20001220703</ele>
        <time>2014-05-30T14:15:56.000Z</time>
      </trkpt>
      <trkpt lat="46.51907" lon="6.02145">
        <ele>727.79998779297</ele>
        <time>2014-05-30T14:16:00.000Z</time>
      </trkpt>
      <trkpt lat="46.51909" lon="6.02158">
        <ele>725.40002441406</ele>
        <time>2014-05-30T14:16:03.000Z</time>
      </trkpt>
      <trkpt lat="46.51909" lon="6.02167">
        <ele>723.79998779297</ele>
        <time>2014-05-30T14:16:05.000Z</time>
      </trkpt>
      <trkpt lat="46.51897" lon="6.02197">
        <ele>719.79998779297</ele>
        <time>2014-05-30T14:16:10.000Z</time>
      </trkpt>
      <trkpt lat="46.51886" lon="6.02212">
        <ele>719.40002441406</ele>
        <time>2014-05-30T14:16:13.000Z</time>
      </trkpt>
      <trkpt lat="46.51881" lon="6.02221">
        <ele>718.59997558594</ele>
        <time>2014-05-30T14:16:15.000Z</time>
      </trkpt>
      <trkpt lat="46.51876" lon="6.02245">
        <ele>718.40002441406</ele>
        <time>2014-05-30T14:16:20.000Z</time>
      </trkpt>
      <trkpt lat="46.51874" lon="6.0225">
        <ele>718.40002441406</ele>
        <time>2014-05-30T14:16:21.000Z</time>
      </trkpt>
      <trkpt lat="46.51875" lon="6.02265">
        <ele>717.79998779297</ele>
        <time>2014-05-30T14:16:24.000Z</time>
      </trkpt>
      <trkpt lat="46.5188" lon="6.02273">
        <ele>716.40002441406</ele>
        <time>2014-05-30T14:16:27.000Z</time>
      </trkpt>
      <trkpt lat="46.51888" lon="6.02267">
        <ele>715</ele>
        <time>2014-05-30T14:16:30.000Z</time>
      </trkpt>
      <trkpt lat="46.51908" lon="6.02244">
        <ele>713.40002441406</ele>
        <time>2014-05-30T14:16:36.000Z</time>
      </trkpt>
      <trkpt lat="46.51917" lon="6.02238">
        <ele>713.20001220703</ele>
        <time>2014-05-30T14:16:38.000Z</time>
      </trkpt>
      <trkpt lat="46.51925" lon="6.02232">
        <ele>712.40002441406</ele>
        <time>2014-05-30T14:16:40.000Z</time>
      </trkpt>
      <trkpt lat="46.51943" lon="6.02215">
        <ele>713</ele>
        <time>2014-05-30T14:16:45.000Z</time>
      </trkpt>
      <trkpt lat="46.51953" lon="6.02208">
        <ele>713.40002441406</ele>
        <time>2014-05-30T14:16:47.000Z</time>
      </trkpt>
      <trkpt lat="46.51975" lon="6.02205">
        <ele>711.40002441406</ele>
        <time>2014-05-30T14:16:52.000Z</time>
      </trkpt>
      <trkpt lat="46.51987" lon="6.02221">
        <ele>708.59997558594</ele>
        <time>2014-05-30T14:16:55.000Z</time>
      </trkpt>
      <trkpt lat="46.5199" lon="6.02227">
        <ele>708.20001220703</ele>
        <time>2014-05-30T14:16:56.000Z</time>
      </trkpt>
      <trkpt lat="46.51996" lon="6.02238">
        <ele>708.79998779297</ele>
        <time>2014-05-30T14:16:58.000Z</time>
      </trkpt>
      <trkpt lat="46.52005" lon="6.02262">
        <ele>709.79998779297</ele>
        <time>2014-05-30T14:17:02.000Z</time>
      </trkpt>
      <trkpt lat="46.52011" lon="6.02269">
        <ele>710.20001220703</ele>
        <time>2014-05-30T14:17:04.000Z</time>
      </trkpt>
      <trkpt lat="46.52025" lon="6.0227">
        <ele>710.59997558594</ele>
        <time>2014-05-30T14:17:08.000Z</time>
      </trkpt>
      <trkpt lat="46.52042" lon="6.0224">
        <ele>709.40002441406</ele>
        <time>2014-05-30T14:17:13.000Z</time>
      </trkpt>
      <trkpt lat="46.52052" lon="6.02234">
        <ele>709.20001220703</ele>
        <time>2014-05-30T14:17:16.000Z</time>
      </trkpt>
      <trkpt lat="46.52056" lon="6.02233">
        <ele>709.20001220703</ele>
        <time>2014-05-30T14:17:18.000Z</time>
      </trkpt>
      <trkpt lat="46.52061" lon="6.02229">
        <ele>709</ele>
        <time>2014-05-30T14:17:20.000Z</time>
      </trkpt>
      <trkpt lat="46.52081" lon="6.02218">
        <ele>709.20001220703</ele>
        <time>2014-05-30T14:17:25.000Z</time>
      </trkpt>
      <trkpt lat="46.52084" lon="6.02218">
        <ele>709.20001220703</ele>
        <time>2014-05-30T14:17:26.000Z</time>
      </trkpt>
      <trkpt lat="46.5209" lon="6.02218">
        <ele>709.40002441406</ele>
        <time>2014-05-30T14:17:28.000Z</time>
      </trkpt>
      <trkpt lat="46.52102" lon="6.02201">
        <ele>709.20001220703</ele>
        <time>2014-05-30T14:17:33.000Z</time>
      </trkpt>
      <trkpt lat="46.52116" lon="6.02194">
        <ele>709.40002441406</ele>
        <time>2014-05-30T14:17:37.000Z</time>
      </trkpt>
      <trkpt lat="46.52125" lon="6.02181">
        <ele>708.59997558594</ele>
        <time>2014-05-30T14:17:39.000Z</time>
      </trkpt>
      <trkpt lat="46.5213" lon="6.02173">
        <ele>708.20001220703</ele>
        <time>2014-05-30T14:17:41.000Z</time>
      </trkpt>
      <trkpt lat="46.52142" lon="6.02167">
        <ele>707.59997558594</ele>
        <time>2014-05-30T14:17:45.000Z</time>
      </trkpt>
      <trkpt lat="46.52158" lon="6.02203">
        <ele>709.59997558594</ele>
        <time>2014-05-30T14:17:51.000Z</time>
      </trkpt>
      <trkpt lat="46.52166" lon="6.02195">
        <ele>709.20001220703</ele>
        <time>2014-05-30T14:17:55.000Z</time>
      </trkpt>
      <trkpt lat="46.52168" lon="6.0219">
        <ele>708.79998779297</ele>
        <time>2014-05-30T14:17:57.000Z</time>
      </trkpt>
      <trkpt lat="46.52172" lon="6.02187">
        <ele>708.59997558594</ele>
        <time>2014-05-30T14:17:59.000Z</time>
      </trkpt>
      <trkpt lat="46.52191" lon="6.02196">
        <ele>709.20001220703</ele>
        <time>2014-05-30T14:18:03.000Z</time>
      </trkpt>
      <trkpt lat="46.52204" lon="6.02204">
        <ele>709.79998779297</ele>
        <time>2014-05-30T14:18:05.000Z</time>
      </trkpt>
      <trkpt lat="46.52208" lon="6.02215">
        <ele>710.40002441406</ele>
        <time>2014-05-30T14:18:07.000Z</time>
      </trkpt>
      <trkpt lat="46.52213" lon="6.02236">
        <ele>713.59997558594</ele>
        <time>2014-05-30T14:18:11.000Z</time>
      </trkpt>
      <trkpt lat="46.52235" lon="6.02239">
        <ele>714.20001220703</ele>
        <time>2014-05-30T14:18:15.000Z</time>
      </trkpt>
      <trkpt lat="46.52252" lon="6.0223">
        <ele>712.40002441406</ele>
        <time>2014-05-30T14:18:19.000Z</time>
      </trkpt>
      <trkpt lat="46.52261" lon="6.02225">
        <ele>712</ele>
        <time>2014-05-30T14:18:24.000Z</time>
      </trkpt>
      <trkpt lat="46.52261" lon="6.02224">
        <ele>711.79998779297</ele>
        <time>2014-05-30T14:18:25.000Z</time>
      </trkpt>
      <trkpt lat="46.52271" lon="6.02235">
        <ele>714</ele>
        <time>2014-05-30T14:18:30.000Z</time>
      </trkpt>
      <trkpt lat="46.52272" lon="6.02235">
        <ele>714</ele>
        <time>2014-05-30T14:18:32.000Z</time>
      </trkpt>
      <trkpt lat="46.52279" lon="6.02246">
        <ele>716.20001220703</ele>
        <time>2014-05-30T14:18:38.000Z</time>
      </trkpt>
      <trkpt lat="46.52287" lon="6.02251">
        <ele>717.20001220703</ele>
        <time>2014-05-30T14:18:43.000Z</time>
      </trkpt>
      <trkpt lat="46.52295" lon="6.02251">
        <ele>717.40002441406</ele>
        <time>2014-05-30T14:18:45.000Z</time>
      </trkpt>
      <trkpt lat="46.52312" lon="6.02256">
        <ele>719</ele>
        <time>2014-05-30T14:18:50.000Z</time>
      </trkpt>
      <trkpt lat="46.52329" lon="6.02258">
        <ele>719.59997558594</ele>
        <time>2014-05-30T14:18:55.000Z</time>
      </trkpt>
      <trkpt lat="46.52336" lon="6.02262">
        <ele>720.40002441406</ele>
        <time>2014-05-30T14:18:58.000Z</time>
      </trkpt>
      <trkpt lat="46.52353" lon="6.02264">
        <ele>721</ele>
        <time>2014-05-30T14:19:02.000Z</time>
      </trkpt>
      <trkpt lat="46.52363" lon="6.02259">
        <ele>720</ele>
        <time>2014-05-30T14:19:06.000Z</time>
      </trkpt>
      <trkpt lat="46.52366" lon="6.02266">
        <ele>721.40002441406</ele>
        <time>2014-05-30T14:19:10.000Z</time>
      </trkpt>
      <trkpt lat="46.52383" lon="6.02241">
        <ele>716.79998779297</ele>
        <time>2014-05-30T14:19:16.000Z</time>
      </trkpt>
      <trkpt lat="46.52383" lon="6.02238">
        <ele>716.40002441406</ele>
        <time>2014-05-30T14:19:17.000Z</time>
      </trkpt>
      <trkpt lat="46.52368" lon="6.02226">
        <ele>714.20001220703</ele>
        <time>2014-05-30T14:19:22.000Z</time>
      </trkpt>
      <trkpt lat="46.52364" lon="6.02211">
        <ele>712</ele>
        <time>2014-05-30T14:19:25.000Z</time>
      </trkpt>
      <trkpt lat="46.52369" lon="6.022">
        <ele>710.40002441406</ele>
        <time>2014-05-30T14:19:28.000Z</time>
      </trkpt>
      <trkpt lat="46.5237" lon="6.022">
        <ele>710.20001220703</ele>
        <time>2014-05-30T14:19:31.000Z</time>
      </trkpt>
      <trkpt lat="46.52357" lon="6.02186">
        <ele>708.40002441406</ele>
        <time>2014-05-30T14:19:35.000Z</time>
      </trkpt>
      <trkpt lat="46.52353" lon="6.02166">
        <ele>705.59997558594</ele>
        <time>2014-05-30T14:19:38.000Z</time>
      </trkpt>
      <trkpt lat="46.52345" lon="6.02141">
        <ele>702.40002441406</ele>
        <time>2014-05-30T14:19:42.000Z</time>
      </trkpt>
      <trkpt lat="46.52327" lon="6.02132">
        <ele>701.79998779297</ele>
        <time>2014-05-30T14:19:47.000Z</time>
      </trkpt>
      <trkpt lat="46.52324" lon="6.02129">
        <ele>701.79998779297</ele>
        <time>2014-05-30T14:19:48.000Z</time>
      </trkpt>
      <trkpt lat="46.52318" lon="6.02122">
        <ele>701.59997558594</ele>
        <time>2014-05-30T14:19:52.000Z</time>
      </trkpt>
      <trkpt lat="46.52321" lon="6.02132">
        <ele>701.79998779297</ele>
        <time>2014-05-30T14:19:56.000Z</time>
      </trkpt>
      <trkpt lat="46.52334" lon="6.02131">
        <ele>702</ele>
        <time>2014-05-30T14:20:00.000Z</time>
      </trkpt>
      <trkpt lat="46.52346" lon="6.02107">
        <ele>701.40002441406</ele>
        <time>2014-05-30T14:20:04.000Z</time>
      </trkpt>
      <trkpt lat="46.52354" lon="6.02084">
        <ele>700.79998779297</ele>
        <time>2014-05-30T14:20:08.000Z</time>
      </trkpt>
      <trkpt lat="46.52355" lon="6.02066">
        <ele>700</ele>
        <time>2014-05-30T14:20:11.000Z</time>
      </trkpt>
      <trkpt lat="46.52336" lon="6.02051">
        <ele>701.79998779297</ele>
        <time>2014-05-30T14:20:16.000Z</time>
      </trkpt>
      <trkpt lat="46.52317" lon="6.02058">
        <ele>700</ele>
        <time>2014-05-30T14:20:19.000Z</time>
      </trkpt>
      <trkpt lat="46.52309" lon="6.02061">
        <ele>700.20001220703</ele>
        <time>2014-05-30T14:20:21.000Z</time>
      </trkpt>
      <trkpt lat="46.52291" lon="6.02062">
        <ele>700.79998779297</ele>
        <time>2014-05-30T14:20:26.000Z</time>
      </trkpt>
      <trkpt lat="46.52286" lon="6.02062">
        <ele>700.79998779297</ele>
        <time>2014-05-30T14:20:27.000Z</time>
      </trkpt>
      <trkpt lat="46.52272" lon="6.0206">
        <ele>701.20001220703</ele>
        <time>2014-05-30T14:20:30.000Z</time>
      </trkpt>
      <trkpt lat="46.52261" lon="6.02062">
        <ele>701.40002441406</ele>
        <time>2014-05-30T14:20:32.000Z</time>
      </trkpt>
      <trkpt lat="46.5224" lon="6.02074">
        <ele>702.20001220703</ele>
        <time>2014-05-30T14:20:38.000Z</time>
      </trkpt>
      <trkpt lat="46.52233" lon="6.02077">
        <ele>702.59997558594</ele>
        <time>2014-05-30T14:20:40.000Z</time>
      </trkpt>
      <trkpt lat="46.52222" lon="6.02095">
        <ele>703.59997558594</ele>
        <time>2014-05-30T14:20:44.000Z</time>
      </trkpt>
      <trkpt lat="46.52215" lon="6.02116">
        <ele>704.79998779297</ele>
        <time>2014-05-30T14:20:48.000Z</time>
      </trkpt>
      <trkpt lat="46.52212" lon="6.02118">
        <ele>705</ele>
        <time>2014-05-30T14:20:49.000Z</time>
      </trkpt>
      <trkpt lat="46.52184" lon="6.02132">
        <ele>705.40002441406</ele>
        <time>2014-05-30T14:20:55.000Z</time>
      </trkpt>
      <trkpt lat="46.52169" lon="6.02129">
        <ele>705.79998779297</ele>
        <time>2014-05-30T14:21:00.000Z</time>
      </trkpt>
      <trkpt lat="46.52159" lon="6.02112">
        <ele>706.59997558594</ele>
        <time>2014-05-30T14:21:05.000Z</time>
      </trkpt>
      <trkpt lat="46.52152" lon="6.02084">
        <ele>707.40002441406</ele>
        <time>2014-05-30T14:21:12.000Z</time>
      </trkpt>
      <trkpt lat="46.5214" lon="6.02071">
        <ele>708.59997558594</ele>
        <time>2014-05-30T14:21:17.000Z</time>
      </trkpt>
      <trkpt lat="46.52138" lon="6.0207">
        <ele>708.79998779297</ele>
        <time>2014-05-30T14:21:18.000Z</time>
      </trkpt>
      <trkpt lat="46.52133" lon="6.02061">
        <ele>709.40002441406</ele>
        <time>2014-05-30T14:21:24.000Z</time>
      </trkpt>
      <trkpt lat="46.52131" lon="6.02059">
        <ele>709.59997558594</ele>
        <time>2014-05-30T14:21:25.000Z</time>
      </trkpt>
      <trkpt lat="46.52123" lon="6.02057">
        <ele>710.79998779297</ele>
        <time>2014-05-30T14:21:29.000Z</time>
      </trkpt>
      <trkpt lat="46.52109" lon="6.02057">
        <ele>712</ele>
        <time>2014-05-30T14:21:35.000Z</time>
      </trkpt>
      <trkpt lat="46.52109" lon="6.02054">
        <ele>713</ele>
        <time>2014-05-30T14:21:36.000Z</time>
      </trkpt>
      <trkpt lat="46.52108" lon="6.02052">
        <ele>714</ele>
        <time>2014-05-30T14:21:39.000Z</time>
      </trkpt>
      <trkpt lat="46.52114" lon="6.02059">
        <ele>711</ele>
        <time>2014-05-30T14:21:44.000Z</time>
      </trkpt>
      <trkpt lat="46.52117" lon="6.02061">
        <ele>710.79998779297</ele>
        <time>2014-05-30T14:21:45.000Z</time>
      </trkpt>
      <trkpt lat="46.52132" lon="6.02069">
        <ele>709.20001220703</ele>
        <time>2014-05-30T14:21:50.000Z</time>
      </trkpt>
      <trkpt lat="46.52139" lon="6.02078">
        <ele>708.40002441406</ele>
        <time>2014-05-30T14:21:54.000Z</time>
      </trkpt>
      <trkpt lat="46.52153" lon="6.02089">
        <ele>707.20001220703</ele>
        <time>2014-05-30T14:21:58.000Z</time>
      </trkpt>
      <trkpt lat="46.52164" lon="6.02107">
        <ele>706.59997558594</ele>
        <time>2014-05-30T14:22:02.000Z</time>
      </trkpt>
      <trkpt lat="46.52169" lon="6.02122">
        <ele>706</ele>
        <time>2014-05-30T14:22:05.000Z</time>
      </trkpt>
      <trkpt lat="46.52158" lon="6.02138">
        <ele>706</ele>
        <time>2014-05-30T14:22:09.000Z</time>
      </trkpt>
      <trkpt lat="46.52154" lon="6.02141">
        <ele>706</ele>
        <time>2014-05-30T14:22:10.000Z</time>
      </trkpt>
      <trkpt lat="46.52147" lon="6.02145">
        <ele>706.20001220703</ele>
        <time>2014-05-30T14:22:12.000Z</time>
      </trkpt>
      <trkpt lat="46.52131" lon="6.02155">
        <ele>707</ele>
        <time>2014-05-30T14:22:16.000Z</time>
      </trkpt>
      <trkpt lat="46.5211" lon="6.0217">
        <ele>708.20001220703</ele>
        <time>2014-05-30T14:22:21.000Z</time>
      </trkpt>
      <trkpt lat="46.52105" lon="6.02168">
        <ele>708</ele>
        <time>2014-05-30T14:22:22.000Z</time>
      </trkpt>
      <trkpt lat="46.52095" lon="6.02157">
        <ele>707.59997558594</ele>
        <time>2014-05-30T14:22:25.000Z</time>
      </trkpt>
      <trkpt lat="46.52088" lon="6.02145">
        <ele>706.79998779297</ele>
        <time>2014-05-30T14:22:28.000Z</time>
      </trkpt>
      <trkpt lat="46.52083" lon="6.02121">
        <ele>708.79998779297</ele>
        <time>2014-05-30T14:22:34.000Z</time>
      </trkpt>
      <trkpt lat="46.52075" lon="6.02158">
        <ele>707.59997558594</ele>
        <time>2014-05-30T14:22:38.000Z</time>
      </trkpt>
      <trkpt lat="46.52074" lon="6.02155">
        <ele>707.40002441406</ele>
        <time>2014-05-30T14:22:40.000Z</time>
      </trkpt>
      <trkpt lat="46.52079" lon="6.02163">
        <ele>707.79998779297</ele>
        <time>2014-05-30T14:22:44.000Z</time>
      </trkpt>
      <trkpt lat="46.52086" lon="6.02188">
        <ele>708.59997558594</ele>
        <time>2014-05-30T14:22:49.000Z</time>
      </trkpt>
      <trkpt lat="46.52085" lon="6.02193">
        <ele>708.59997558594</ele>
        <time>2014-05-30T14:22:50.000Z</time>
      </trkpt>
      <trkpt lat="46.52073" lon="6.02208">
        <ele>708.79998779297</ele>
        <time>2014-05-30T14:22:54.000Z</time>
      </trkpt>
      <trkpt lat="46.52077" lon="6.02215">
        <ele>709</ele>
        <time>2014-05-30T14:22:58.000Z</time>
      </trkpt>
      <trkpt lat="46.52072" lon="6.022">
        <ele>708.59997558594</ele>
        <time>2014-05-30T14:23:02.000Z</time>
      </trkpt>
      <trkpt lat="46.52066" lon="6.0219">
        <ele>708.20001220703</ele>
        <time>2014-05-30T14:23:06.000Z</time>
      </trkpt>
      <trkpt lat="46.52056" lon="6.02193">
        <ele>709.59997558594</ele>
        <time>2014-05-30T14:23:09.000Z</time>
      </trkpt>
      <trkpt lat="46.5204" lon="6.02204">
        <ele>711</ele>
        <time>2014-05-30T14:23:14.000Z</time>
      </trkpt>
      <trkpt lat="46.5204" lon="6.02204">
        <ele>711</ele>
        <time>2014-05-30T14:23:15.000Z</time>
      </trkpt>
      <trkpt lat="46.52052" lon="6.02223">
        <ele>709</ele>
        <time>2014-05-30T14:23:20.000Z</time>
      </trkpt>
      <trkpt lat="46.52059" lon="6.02221">
        <ele>709.40002441406</ele>
        <time>2014-05-30T14:23:23.000Z</time>
      </trkpt>
      <trkpt lat="46.52074" lon="6.02216">
        <ele>709</ele>
        <time>2014-05-30T14:23:27.000Z</time>
      </trkpt>
      <trkpt lat="46.52079" lon="6.02223">
        <ele>709.20001220703</ele>
        <time>2014-05-30T14:23:29.000Z</time>
      </trkpt>
      <trkpt lat="46.52081" lon="6.02248">
        <ele>712.20001220703</ele>
        <time>2014-05-30T14:23:33.000Z</time>
      </trkpt>
      <trkpt lat="46.52085" lon="6.02255">
        <ele>713.20001220703</ele>
        <time>2014-05-30T14:23:35.000Z</time>
      </trkpt>
      <trkpt lat="46.521" lon="6.02248">
        <ele>713.79998779297</ele>
        <time>2014-05-30T14:23:39.000Z</time>
      </trkpt>
      <trkpt lat="46.52105" lon="6.02246">
        <ele>713.59997558594</ele>
        <time>2014-05-30T14:23:43.000Z</time>
      </trkpt>
      <trkpt lat="46.52106" lon="6.02246">
        <ele>713.59997558594</ele>
        <time>2014-05-30T14:23:45.000Z</time>
      </trkpt>
      <trkpt lat="46.52112" lon="6.0225">
        <ele>714.40002441406</ele>
        <time>2014-05-30T14:23:52.000Z</time>
      </trkpt>
      <trkpt lat="46.52114" lon="6.02249">
        <ele>714.40002441406</ele>
        <time>2014-05-30T14:23:57.000Z</time>
      </trkpt>
      <trkpt lat="46.52114" lon="6.02254">
        <ele>715.20001220703</ele>
        <time>2014-05-30T14:24:05.000Z</time>
      </trkpt>
      <trkpt lat="46.52109" lon="6.02259">
        <ele>716</ele>
        <time>2014-05-30T14:24:11.000Z</time>
      </trkpt>
      <trkpt lat="46.52105" lon="6.02263">
        <ele>716.59997558594</ele>
        <time>2014-05-30T14:24:15.000Z</time>
      </trkpt>
      <trkpt lat="46.52096" lon="6.02268">
        <ele>715.59997558594</ele>
        <time>2014-05-30T14:24:23.000Z</time>
      </trkpt>
      <trkpt lat="46.52092" lon="6.02267">
        <ele>714.79998779297</ele>
        <time>2014-05-30T14:24:31.000Z</time>
      </trkpt>
      <trkpt lat="46.52097" lon="6.02259">
        <ele>715.20001220703</ele>
        <time>2014-05-30T14:25:17.000Z</time>
      </trkpt>
      <trkpt lat="46.52087" lon="6.02261">
        <ele>713.79998779297</ele>
        <time>2014-05-30T14:26:56.000Z</time>
      </trkpt>
      <trkpt lat="46.52083" lon="6.0226">
        <ele>713.20001220703</ele>
        <time>2014-05-30T14:27:08.000Z</time>
      </trkpt>
      <trkpt lat="46.52094" lon="6.0226">
        <ele>714.79998779297</ele>
        <time>2014-05-30T14:27:45.000Z</time>
      </trkpt>
      <trkpt lat="46.52103" lon="6.02258">
        <ele>715.79998779297</ele>
        <time>2014-05-30T14:28:04.000Z</time>
      </trkpt>
      <trkpt lat="46.52105" lon="6.02258">
        <ele>715.79998779297</ele>
        <time>2014-05-30T14:28:13.000Z</time>
      </trkpt>
      <trkpt lat="46.5209" lon="6.02265">
        <ele>714.40002441406</ele>
        <time>2014-05-30T14:28:42.000Z</time>
      </trkpt>
      <trkpt lat="46.52084" lon="6.02266">
        <ele>713.59997558594</ele>
        <time>2014-05-30T14:28:51.000Z</time>
      </trkpt>
      <trkpt lat="46.52081" lon="6.02263">
        <ele>713</ele>
        <time>2014-05-30T14:28:57.000Z</time>
      </trkpt>
      <trkpt lat="46.5208" lon="6.02259">
        <ele>712.59997558594</ele>
        <time>2014-05-30T14:29:02.000Z</time>
      </trkpt>
      <trkpt lat="46.52081" lon="6.02257">
        <ele>712.59997558594</ele>
        <time>2014-05-30T14:29:12.000Z</time>
      </trkpt>
      <trkpt lat="46.52081" lon="6.02257">
        <ele>712.79998779297</ele>
        <time>2014-05-30T14:29:13.000Z</time>
      </trkpt>
      <trkpt lat="46.52087" lon="6.02254">
        <ele>713.40002441406</ele>
        <time>2014-05-30T14:29:16.000Z</time>
      </trkpt>
      <trkpt lat="46.52094" lon="6.02251">
        <ele>714.20001220703</ele>
        <time>2014-05-30T14:29:25.000Z</time>
      </trkpt>
      <trkpt lat="46.52092" lon="6.02252">
        <ele>714.20001220703</ele>
        <time>2014-05-30T14:29:37.000Z</time>
      </trkpt>
      <trkpt lat="46.52096" lon="6.02252">
        <ele>714.59997558594</ele>
        <time>2014-05-30T14:29:49.000Z</time>
      </trkpt>
      <trkpt lat="46.52102" lon="6.0225">
        <ele>714.40002441406</ele>
        <time>2014-05-30T14:30:00.000Z</time>
      </trkpt>
      <trkpt lat="46.52105" lon="6.02241">
        <ele>712.79998779297</ele>
        <time>2014-05-30T14:30:31.000Z</time>
      </trkpt>
      <trkpt lat="46.52107" lon="6.02239">
        <ele>712.59997558594</ele>
        <time>2014-05-30T14:30:42.000Z</time>
      </trkpt>
      <trkpt lat="46.52097" lon="6.02243">
        <ele>712.79998779297</ele>
        <time>2014-05-30T14:30:55.000Z</time>
      </trkpt>
      <trkpt lat="46.52094" lon="6.02244">
        <ele>713</ele>
        <time>2014-05-30T14:31:07.000Z</time>
      </trkpt>
      <trkpt lat="46.5209" lon="6.02247">
        <ele>713.40002441406</ele>
        <time>2014-05-30T14:31:23.000Z</time>
      </trkpt>
      <trkpt lat="46.52091" lon="6.02246">
        <ele>713.40002441406</ele>
        <time>2014-05-30T14:31:34.000Z</time>
      </trkpt>
      <trkpt lat="46.5209" lon="6.02247">
        <ele>713.40002441406</ele>
        <time>2014-05-30T14:32:02.000Z</time>
      </trkpt>
      <trkpt lat="46.5209" lon="6.02248">
        <ele>713.59997558594</ele>
        <time>2014-05-30T14:32:25.000Z</time>
      </trkpt>
      <trkpt lat="46.52078" lon="6.02248">
        <ele>711.79998779297</ele>
        <time>2014-05-30T14:33:31.000Z</time>
      </trkpt>
      <trkpt lat="46.52079" lon="6.02248">
        <ele>712</ele>
        <time>2014-05-30T14:33:49.000Z</time>
      </trkpt>
      <trkpt lat="46.52079" lon="6.02247">
        <ele>711.79998779297</ele>
        <time>2014-05-30T14:34:22.000Z</time>
      </trkpt>
      <trkpt lat="46.52079" lon="6.02251">
        <ele>712</ele>
        <time>2014-05-30T14:35:00.000Z</time>
      </trkpt>
      <trkpt lat="46.52079" lon="6.02251">
        <ele>712</ele>
        <time>2014-05-30T14:35:14.000Z</time>
      </trkpt>
      <trkpt lat="46.45562" lon="5.95155">
        <ele>1003.5999755859</ele>
        <time>2014-05-31T11:24:32.000Z</time>
      </trkpt>
    </trkseg>
  </trk>
</gpx>